sensor_id;sensor_type;location;lat;lon;timestamp;pressure;altitude;pressure_sealevel;temperature;humidity
4398;BME280;2213;49.720;7.296;2022-10-31T00:01:39;98634.34;;;11.23;100.00
4398;BME280;2213;49.720;7.296;2022-10-31T00:04:08;98640.19;;;11.25;100.00
4398;BME280;2213;49.720;7.296;2022-10-31T00:06:38;98632.53;;;11.24;100.00
4398;BME280;2213;49.720;7.296;2022-10-31T00:09:09;98641.72;;;11.20;100.00
4398;BME280;2213;49.720;7.296;2022-10-31T00:11:37;98644.34;;;11.20;100.00
4398;BME280;2213;49.720;7.296;2022-10-31T00:14:06;98635.72;;;11.11;100.00
4398;BME280;2213;49.720;7.296;2022-10-31T00:16:35;98644.72;;;11.17;100.00
4398;BME280;2213;49.720;7.296;2022-10-31T00:19:06;98654.72;;;11.13;100.00
4398;BME280;2213;49.720;7.296;2022-10-31T00:21:35;98649.13;;;11.16;100.00
4398;BME280;2213;49.720;7.296;2022-10-31T00:24:06;98645.06;;;11.14;100.00
4398;BME280;2213;49.720;7.296;2022-10-31T00:26:36;98651.13;;;11.14;100.00
4398;BME280;2213;49.720;7.296;2022-10-31T00:29:06;98644.25;;;11.13;100.00
4398;BME280;2213;49.720;7.296;2022-10-31T00:31:34;98650.75;;;11.17;100.00
4398;BME280;2213;49.720;7.296;2022-10-31T00:34:04;98639.63;;;11.15;100.00
4398;BME280;2213;49.720;7.296;2022-10-31T00:36:32;98631.78;;;11.15;100.00
4398;BME280;2213;49.720;7.296;2022-10-31T00:39:01;98637.00;;;11.15;100.00
4398;BME280;2213;49.720;7.296;2022-10-31T00:41:31;98636.38;;;11.13;100.00
4398;BME280;2213;49.720;7.296;2022-10-31T00:44:00;98643.25;;;11.14;100.00
4398;BME280;2213;49.720;7.296;2022-10-31T00:46:28;98636.56;;;11.11;100.00
4398;BME280;2213;49.720;7.296;2022-10-31T00:48:57;98638.53;;;11.09;100.00
4398;BME280;2213;49.720;7.296;2022-10-31T00:51:26;98640.34;;;11.09;100.00
4398;BME280;2213;49.720;7.296;2022-10-31T00:53:55;98639.72;;;11.07;100.00
4398;BME280;2213;49.720;7.296;2022-10-31T00:56:24;98630.84;;;11.08;100.00
4398;BME280;2213;49.720;7.296;2022-10-31T00:58:55;98627.88;;;11.11;100.00
4398;BME280;2213;49.720;7.296;2022-10-31T01:01:24;98633.94;;;11.11;100.00
4398;BME280;2213;49.720;7.296;2022-10-31T01:03:54;98626.31;;;11.02;100.00
4398;BME280;2213;49.720;7.296;2022-10-31T01:06:23;98624.34;;;11.04;100.00
4398;BME280;2213;49.720;7.296;2022-10-31T01:08:52;98616.69;;;11.02;100.00
4398;BME280;2213;49.720;7.296;2022-10-31T01:11:22;98613.41;;;11.00;100.00
4398;BME280;2213;49.720;7.296;2022-10-31T01:13:54;98610.97;;;10.99;100.00
4398;BME280;2213;49.720;7.296;2022-10-31T01:16:25;98621.63;;;10.97;100.00
4398;BME280;2213;49.720;7.296;2022-10-31T01:18:54;98622.78;;;10.95;100.00
4398;BME280;2213;49.720;7.296;2022-10-31T01:21:26;98614.94;;;10.95;100.00
4398;BME280;2213;49.720;7.296;2022-10-31T01:23:55;98615.25;;;11.00;100.00
4398;BME280;2213;49.720;7.296;2022-10-31T01:26:26;98626.31;;;11.02;100.00
4398;BME280;2213;49.720;7.296;2022-10-31T01:28:59;98619.47;;;11.01;100.00
4398;BME280;2213;49.720;7.296;2022-10-31T01:31:31;98623.41;;;10.97;100.00
4398;BME280;2213;49.720;7.296;2022-10-31T01:34:01;98625.03;;;10.98;100.00
4398;BME280;2213;49.720;7.296;2022-10-31T01:36:33;98629.94;;;11.01;100.00
4398;BME280;2213;49.720;7.296;2022-10-31T01:39:05;98624.69;;;11.01;100.00
4398;BME280;2213;49.720;7.296;2022-10-31T01:41:40;98625.88;;;10.98;100.00
4398;BME280;2213;49.720;7.296;2022-10-31T01:44:58;98622.28;;;10.99;100.00
4398;BME280;2213;49.720;7.296;2022-10-31T01:47:43;98619.47;;;11.01;100.00
4398;BME280;2213;49.720;7.296;2022-10-31T01:50:26;98611.16;;;10.97;100.00
4398;BME280;2213;49.720;7.296;2022-10-31T01:52:59;98610.31;;;10.97;100.00
4398;BME280;2213;49.720;7.296;2022-10-31T01:55:32;98611.81;;;10.99;100.00
4398;BME280;2213;49.720;7.296;2022-10-31T01:58:07;98615.91;;;10.94;100.00
4398;BME280;2213;49.720;7.296;2022-10-31T02:00:41;98605.53;;;10.86;100.00
4398;BME280;2213;49.720;7.296;2022-10-31T02:03:12;98602.09;;;10.85;100.00
4398;BME280;2213;49.720;7.296;2022-10-31T02:05:42;98604.72;;;10.85;100.00
4398;BME280;2213;49.720;7.296;2022-10-31T02:08:16;98599.94;;;10.89;100.00
4398;BME280;2213;49.720;7.296;2022-10-31T02:10:47;98597.94;;;10.91;100.00
4398;BME280;2213;49.720;7.296;2022-10-31T02:13:17;98600.41;;;10.92;100.00
4398;BME280;2213;49.720;7.296;2022-10-31T02:15:52;98607.09;;;10.95;100.00
4398;BME280;2213;49.720;7.296;2022-10-31T02:18:23;98603.47;;;10.96;100.00
4398;BME280;2213;49.720;7.296;2022-10-31T02:21:07;98605.28;;;10.95;100.00
4398;BME280;2213;49.720;7.296;2022-10-31T02:24:28;98607.91;;;10.95;100.00
4398;BME280;2213;49.720;7.296;2022-10-31T02:30:20;98602.25;;;10.84;100.00
4398;BME280;2213;49.720;7.296;2022-10-31T02:33:15;98599.00;;;10.82;100.00
4398;BME280;2213;49.720;7.296;2022-10-31T02:35:58;98601.63;;;10.82;100.00
4398;BME280;2213;49.720;7.296;2022-10-31T02:38:48;98597.03;;;10.84;100.00
4398;BME280;2213;49.720;7.296;2022-10-31T02:41:31;98596.41;;;10.82;100.00
4398;BME280;2213;49.720;7.296;2022-10-31T02:44:09;98599.63;;;10.84;100.00
4398;BME280;2213;49.720;7.296;2022-10-31T02:46:49;98605.41;;;10.79;100.00
4398;BME280;2213;49.720;7.296;2022-10-31T02:49:27;98603.78;;;10.78;100.00
4398;BME280;2213;49.720;7.296;2022-10-31T02:51:57;98598.72;;;10.77;100.00
4398;BME280;2213;49.720;7.296;2022-10-31T02:54:28;98594.13;;;10.79;100.00
4398;BME280;2213;49.720;7.296;2022-10-31T02:57:03;98596.09;;;10.77;100.00
4398;BME280;2213;49.720;7.296;2022-10-31T02:59:41;98594.81;;;10.73;100.00
4398;BME280;2213;49.720;7.296;2022-10-31T03:02:43;98601.69;;;10.74;100.00
4398;BME280;2213;49.720;7.296;2022-10-31T03:05:52;98599.56;;;10.69;100.00
4398;BME280;2213;49.720;7.296;2022-10-31T03:08:29;98601.41;;;10.69;100.00
4398;BME280;2213;49.720;7.296;2022-10-31T03:11:03;98598.44;;;10.72;100.00
4398;BME280;2213;49.720;7.296;2022-10-31T03:13:41;98589.41;;;10.74;100.00
4398;BME280;2213;49.720;7.296;2022-10-31T03:16:18;98592.19;;;10.73;100.00
4398;BME280;2213;49.720;7.296;2022-10-31T03:18:55;98595.97;;;10.70;100.00
4398;BME280;2213;49.720;7.296;2022-10-31T03:21:31;98590.75;;;10.70;100.00
4398;BME280;2213;49.720;7.296;2022-10-31T03:24:03;98587.78;;;10.73;100.00
4398;BME280;2213;49.720;7.296;2022-10-31T03:26:35;98585.97;;;10.74;100.00
4398;BME280;2213;49.720;7.296;2022-10-31T03:29:10;98585.72;;;10.69;100.00
4398;BME280;2213;49.720;7.296;2022-10-31T03:31:47;98591.91;;;10.68;100.00
4398;BME280;2213;49.720;7.296;2022-10-31T03:34:19;98587.50;;;10.68;100.00
4398;BME280;2213;49.720;7.296;2022-10-31T03:36:54;98588.31;;;10.69;100.00
4398;BME280;2213;49.720;7.296;2022-10-31T03:39:27;98583.88;;;10.69;100.00
4398;BME280;2213;49.720;7.296;2022-10-31T03:42:04;98585.56;;;10.62;100.00
4398;BME280;2213;49.720;7.296;2022-10-31T03:44:38;98582.16;;;10.62;100.00
4398;BME280;2213;49.720;7.296;2022-10-31T03:47:09;98586.91;;;10.58;100.00
4398;BME280;2213;49.720;7.296;2022-10-31T03:49:39;98586.09;;;10.57;100.00
4398;BME280;2213;49.720;7.296;2022-10-31T03:52:19;98576.94;;;10.62;100.00
4398;BME280;2213;49.720;7.296;2022-10-31T03:54:56;98577.91;;;10.60;100.00
4398;BME280;2213;49.720;7.296;2022-10-31T03:57:33;98573.66;;;10.59;100.00
4398;BME280;2213;49.720;7.296;2022-10-31T04:00:08;98581.69;;;10.58;100.00
4398;BME280;2213;49.720;7.296;2022-10-31T04:02:42;98581.69;;;10.58;100.00
4398;BME280;2213;49.720;7.296;2022-10-31T04:05:15;98582.50;;;10.58;100.00
4398;BME280;2213;49.720;7.296;2022-10-31T04:07:53;98583.28;;;10.59;100.00
4398;BME280;2213;49.720;7.296;2022-10-31T04:10:26;98584.47;;;10.56;100.00
4398;BME280;2213;49.720;7.296;2022-10-31T04:13:07;98589.34;;;10.59;100.00
4398;BME280;2213;49.720;7.296;2022-10-31T04:15:39;98587.38;;;10.62;100.00
4398;BME280;2213;49.720;7.296;2022-10-31T04:18:09;98584.59;;;10.63;100.00
4398;BME280;2213;49.720;7.296;2022-10-31T04:20:40;98589.47;;;10.66;100.00
4398;BME280;2213;49.720;7.296;2022-10-31T04:23:19;98585.41;;;10.64;100.00
4398;BME280;2213;49.720;7.296;2022-10-31T04:25:48;98585.75;;;10.60;100.00
4398;BME280;2213;49.720;7.296;2022-10-31T04:28:18;98588.00;;;10.64;100.00
4398;BME280;2213;49.720;7.296;2022-10-31T04:30:47;98594.22;;;10.63;100.00
4398;BME280;2213;49.720;7.296;2022-10-31T04:33:16;98585.41;;;10.64;100.00
4398;BME280;2213;49.720;7.296;2022-10-31T04:35:45;98591.97;;;10.59;100.00
4398;BME280;2213;49.720;7.296;2022-10-31T04:38:15;98582.81;;;10.55;100.00
4398;BME280;2213;49.720;7.296;2022-10-31T04:40:45;98585.13;;;10.58;100.00
4398;BME280;2213;49.720;7.296;2022-10-31T04:43:14;98585.75;;;10.60;100.00
4398;BME280;2213;49.720;7.296;2022-10-31T04:45:43;98588.19;;;10.62;100.00
4398;BME280;2213;49.720;7.296;2022-10-31T04:48:11;98581.84;;;10.56;100.00
4398;BME280;2213;49.720;7.296;2022-10-31T04:50:40;98587.44;;;10.53;100.00
4398;BME280;2213;49.720;7.296;2022-10-31T04:53:08;98582.19;;;10.53;100.00
4398;BME280;2213;49.720;7.296;2022-10-31T04:55:38;98582.81;;;10.55;100.00
4398;BME280;2213;49.720;7.296;2022-10-31T04:58:07;98577.59;;;10.55;100.00
4398;BME280;2213;49.720;7.296;2022-10-31T05:00:37;98573.41;;;10.46;100.00
4398;BME280;2213;49.720;7.296;2022-10-31T05:03:06;98583.88;;;10.46;100.00
4398;BME280;2213;49.720;7.296;2022-10-31T05:05:36;98579.16;;;10.42;100.00
4398;BME280;2213;49.720;7.296;2022-10-31T05:08:05;98577.72;;;10.39;100.00
4398;BME280;2213;49.720;7.296;2022-10-31T05:10:35;98562.38;;;10.36;100.00
4398;BME280;2213;49.720;7.296;2022-10-31T05:13:05;98556.31;;;10.36;100.00
4398;BME280;2213;49.720;7.296;2022-10-31T05:15:34;98555.03;;;10.32;100.00
4398;BME280;2213;49.720;7.296;2022-10-31T05:18:04;98556.38;;;10.28;100.00
4398;BME280;2213;49.720;7.296;2022-10-31T05:20:34;98556.22;;;10.29;100.00
4398;BME280;2213;49.720;7.296;2022-10-31T05:23:04;98555.28;;;10.22;100.00
4398;BME280;2213;49.720;7.296;2022-10-31T05:25:33;98556.09;;;10.23;100.00
4398;BME280;2213;49.720;7.296;2022-10-31T05:28:03;98550.88;;;10.23;100.00
4398;BME280;2213;49.720;7.296;2022-10-31T05:30:34;98552.03;;;10.20;100.00
4398;BME280;2213;49.720;7.296;2022-10-31T05:33:02;98552.34;;;10.17;100.00
4398;BME280;2213;49.720;7.296;2022-10-31T05:35:32;98557.41;;;10.10;100.00
4398;BME280;2213;49.720;7.296;2022-10-31T05:38:01;98565.78;;;10.06;100.00
4398;BME280;2213;49.720;7.296;2022-10-31T05:40:30;98558.91;;;10.05;100.00
4398;BME280;2213;49.720;7.296;2022-10-31T05:42:59;98556.94;;;10.07;100.00
4398;BME280;2213;49.720;7.296;2022-10-31T05:45:32;98559.63;;;9.99;100.00
4398;BME280;2213;49.720;7.296;2022-10-31T05:48:02;98554.53;;;9.97;100.00
4398;BME280;2213;49.720;7.296;2022-10-31T05:50:33;98555.53;;;9.96;100.00
4398;BME280;2213;49.720;7.296;2022-10-31T05:53:04;98551.13;;;9.97;100.00
4398;BME280;2213;49.720;7.296;2022-10-31T05:55:33;98548.69;;;9.95;100.00
4398;BME280;2213;49.720;7.296;2022-10-31T05:58:02;98552.44;;;9.93;100.00
4398;BME280;2213;49.720;7.296;2022-10-31T06:00:32;98553.13;;;9.87;100.00
4398;BME280;2213;49.720;7.296;2022-10-31T06:03:04;98548.88;;;9.86;100.00
4398;BME280;2213;49.720;7.296;2022-10-31T06:05:33;98545.16;;;9.80;100.00
4398;BME280;2213;49.720;7.296;2022-10-31T06:08:05;98536.50;;;9.80;100.00
4398;BME280;2213;49.720;7.296;2022-10-31T06:10:34;98534.56;;;9.82;100.00
4398;BME280;2213;49.720;7.296;2022-10-31T06:13:03;98540.13;;;9.79;100.00
4398;BME280;2213;49.720;7.296;2022-10-31T06:15:35;98536.56;;;9.72;100.00
4398;BME280;2213;49.720;7.296;2022-10-31T06:18:05;98537.06;;;9.67;100.00
4398;BME280;2213;49.720;7.296;2022-10-31T06:20:36;98534.59;;;9.66;100.00
4398;BME280;2213;49.720;7.296;2022-10-31T06:23:05;98524.81;;;9.68;100.00
4398;BME280;2213;49.720;7.296;2022-10-31T06:25:34;98538.84;;;9.67;100.00
4398;BME280;2213;49.720;7.296;2022-10-31T06:28:04;98539.19;;;9.64;100.00
4398;BME280;2213;49.720;7.296;2022-10-31T06:30:35;98539.53;;;9.60;100.00
4398;BME280;2213;49.720;7.296;2022-10-31T06:33:05;98542.78;;;9.63;100.00
4398;BME280;2213;49.720;7.296;2022-10-31T06:35:33;98543.44;;;9.65;100.00
4398;BME280;2213;49.720;7.296;2022-10-31T06:38:03;98544.88;;;9.67;100.00
4398;BME280;2213;49.720;7.296;2022-10-31T06:40:32;98539.47;;;9.69;100.00
4398;BME280;2213;49.720;7.296;2022-10-31T06:43:02;98540.47;;;9.68;100.00
4398;BME280;2213;49.720;7.296;2022-10-31T06:45:30;98546.03;;;9.65;100.00
4398;BME280;2213;49.720;7.296;2022-10-31T06:48:01;98545.03;;;9.66;100.00
4398;BME280;2213;49.720;7.296;2022-10-31T06:50:43;98550.94;;;9.68;100.00
4398;BME280;2213;49.720;7.296;2022-10-31T06:53:13;98552.88;;;9.66;100.00
4398;BME280;2213;49.720;7.296;2022-10-31T06:55:42;98556.50;;;9.65;100.00
4398;BME280;2213;49.720;7.296;2022-10-31T06:58:11;98553.53;;;9.68;100.00
4398;BME280;2213;49.720;7.296;2022-10-31T07:00:41;98560.22;;;9.70;100.00
4398;BME280;2213;49.720;7.296;2022-10-31T07:03:14;98557.59;;;9.70;100.00
4398;BME280;2213;49.720;7.296;2022-10-31T07:05:44;98562.81;;;9.70;100.00
4398;BME280;2213;49.720;7.296;2022-10-31T07:08:14;98560.22;;;9.70;100.00
4398;BME280;2213;49.720;7.296;2022-10-31T07:10:51;98563.78;;;9.69;100.00
4398;BME280;2213;49.720;7.296;2022-10-31T07:13:21;98565.09;;;9.65;100.00
4398;BME280;2213;49.720;7.296;2022-10-31T07:15:55;98564.13;;;9.66;100.00
4398;BME280;2213;49.720;7.296;2022-10-31T07:18:29;98571.81;;;9.68;100.00
4398;BME280;2213;49.720;7.296;2022-10-31T07:20:58;98579.47;;;9.69;100.00
4398;BME280;2213;49.720;7.296;2022-10-31T07:23:27;98573.75;;;9.74;100.00
4398;BME280;2213;49.720;7.296;2022-10-31T07:25:56;98574.84;;;9.79;100.00
4398;BME280;2213;49.720;7.296;2022-10-31T07:28:27;98570.09;;;9.83;100.00
4398;BME280;2213;49.720;7.296;2022-10-31T07:30:57;98577.44;;;9.87;100.00
4398;BME280;2213;49.720;7.296;2022-10-31T07:33:27;98579.56;;;9.92;100.00
4398;BME280;2213;49.720;7.296;2022-10-31T07:35:56;98570.72;;;9.93;100.00
4398;BME280;2213;49.720;7.296;2022-10-31T07:38:25;98578.06;;;9.97;100.00
4398;BME280;2213;49.720;7.296;2022-10-31T07:40:55;98576.59;;;10.03;100.00
4398;BME280;2213;49.720;7.296;2022-10-31T07:43:24;98579.00;;;10.04;100.00
4398;BME280;2213;49.720;7.296;2022-10-31T07:45:53;98571.47;;;10.09;100.00
4398;BME280;2213;49.720;7.296;2022-10-31T07:48:22;98573.75;;;10.13;100.00
4398;BME280;2213;49.720;7.296;2022-10-31T07:50:52;98574.56;;;10.13;100.00
4398;BME280;2213;49.720;7.296;2022-10-31T07:53:21;98574.41;;;10.15;100.00
4398;BME280;2213;49.720;7.296;2022-10-31T07:55:50;98570.63;;;10.17;100.00
4398;BME280;2213;49.720;7.296;2022-10-31T07:58:19;98574.38;;;10.23;100.00
4398;BME280;2213;49.720;7.296;2022-10-31T08:00:48;98576.66;;;10.26;100.00
4398;BME280;2213;49.720;7.296;2022-10-31T08:03:18;98571.88;;;10.29;100.00
4398;BME280;2213;49.720;7.296;2022-10-31T08:05:48;98567.94;;;10.33;100.00
4398;BME280;2213;49.720;7.296;2022-10-31T08:08:18;98572.47;;;10.39;100.00
4398;BME280;2213;49.720;7.296;2022-10-31T08:10:46;98566.91;;;10.42;100.00
4398;BME280;2213;49.720;7.296;2022-10-31T08:13:15;98563.31;;;10.43;100.00
4398;BME280;2213;49.720;7.296;2022-10-31T08:15:43;98569.84;;;10.47;100.00
4398;BME280;2213;49.720;7.296;2022-10-31T08:18:17;98565.88;;;10.51;100.00
4398;BME280;2213;49.720;7.296;2022-10-31T08:20:45;98567.34;;;10.54;100.00
4398;BME280;2213;49.720;7.296;2022-10-31T08:23:14;98570.41;;;10.57;100.00
4398;BME280;2213;49.720;7.296;2022-10-31T08:25:44;98570.88;;;10.61;100.00
4398;BME280;2213;49.720;7.296;2022-10-31T08:28:14;98562.50;;;10.66;100.00
4398;BME280;2213;49.720;7.296;2022-10-31T08:30:43;98563.78;;;10.70;100.00
4398;BME280;2213;49.720;7.296;2022-10-31T08:33:16;98549.38;;;10.74;100.00
4398;BME280;2213;49.720;7.296;2022-10-31T08:35:45;98549.00;;;10.77;100.00
4398;BME280;2213;49.720;7.296;2022-10-31T08:38:14;98548.66;;;10.80;100.00
4398;BME280;2213;49.720;7.296;2022-10-31T08:40:48;98552.38;;;10.85;100.00
4398;BME280;2213;49.720;7.296;2022-10-31T08:43:18;98550.84;;;10.91;100.00
4398;BME280;2213;49.720;7.296;2022-10-31T08:45:49;98548.53;;;10.96;100.00
4398;BME280;2213;49.720;7.296;2022-10-31T08:48:17;98547.00;;;11.01;100.00
4398;BME280;2213;49.720;7.296;2022-10-31T08:50:46;98544.69;;;11.06;100.00
4398;BME280;2213;49.720;7.296;2022-10-31T08:53:17;98548.56;;;11.10;100.00
4398;BME280;2213;49.720;7.296;2022-10-31T08:55:48;98540.53;;;11.12;100.00
4398;BME280;2213;49.720;7.296;2022-10-31T08:58:19;98547.03;;;11.16;100.00
4398;BME280;2213;49.720;7.296;2022-10-31T09:00:51;98549.75;;;11.23;100.00
4398;BME280;2213;49.720;7.296;2022-10-31T09:03:22;98544.81;;;11.28;100.00
4398;BME280;2213;49.720;7.296;2022-10-31T09:05:56;98535.41;;;11.33;100.00
4398;BME280;2213;49.720;7.296;2022-10-31T09:08:26;98534.06;;;11.37;100.00
4398;BME280;2213;49.720;7.296;2022-10-31T09:10:59;98531.69;;;11.42;100.00
4398;BME280;2213;49.720;7.296;2022-10-31T09:13:29;98532.81;;;11.48;100.00
4398;BME280;2213;49.720;7.296;2022-10-31T09:15:59;98523.59;;;11.52;100.00
4398;BME280;2213;49.720;7.296;2022-10-31T09:18:27;98523.03;;;11.56;100.00
4398;BME280;2213;49.720;7.296;2022-10-31T09:21:00;98512.84;;;11.61;100.00
4398;BME280;2213;49.720;7.296;2022-10-31T09:23:29;98509.69;;;11.66;100.00
4398;BME280;2213;49.720;7.296;2022-10-31T09:26:01;98510.13;;;11.70;100.00
4398;BME280;2213;49.720;7.296;2022-10-31T09:28:30;98513.03;;;11.75;100.00
4398;BME280;2213;49.720;7.296;2022-10-31T09:30:59;98515.28;;;11.78;100.00
4398;BME280;2213;49.720;7.296;2022-10-31T09:33:27;98515.56;;;11.83;100.00
4398;BME280;2213;49.720;7.296;2022-10-31T09:35:58;98510.56;;;11.88;100.00
4398;BME280;2213;49.720;7.296;2022-10-31T09:38:27;98511.84;;;11.92;100.00
4398;BME280;2213;49.720;7.296;2022-10-31T09:41:07;98497.38;;;11.96;100.00
4398;BME280;2213;49.720;7.296;2022-10-31T09:43:54;98501.69;;;12.03;100.00
4398;BME280;2213;49.720;7.296;2022-10-31T09:46:36;98494.06;;;12.08;100.00
4398;BME280;2213;49.720;7.296;2022-10-31T09:49:49;98501.00;;;12.16;100.00
4398;BME280;2213;49.720;7.296;2022-10-31T09:52:28;98496.03;;;12.21;100.00
4398;BME280;2213;49.720;7.296;2022-10-31T09:55:06;98498.28;;;12.24;100.00
4398;BME280;2213;49.720;7.296;2022-10-31T09:57:40;98489.66;;;12.30;100.00
4398;BME280;2213;49.720;7.296;2022-10-31T10:00:17;98489.94;;;12.35;100.00
4398;BME280;2213;49.720;7.296;2022-10-31T10:02:52;98491.16;;;12.39;100.00
4398;BME280;2213;49.720;7.296;2022-10-31T10:05:36;98487.81;;;12.45;100.00
4398;BME280;2213;49.720;7.296;2022-10-31T10:08:12;98482.78;;;12.50;100.00
4398;BME280;2213;49.720;7.296;2022-10-31T10:11:01;98487.28;;;12.56;100.00
4398;BME280;2213;49.720;7.296;2022-10-31T10:13:57;98487.53;;;12.61;100.00
4398;BME280;2213;49.720;7.296;2022-10-31T10:16:58;98486.16;;;12.66;100.00
4398;BME280;2213;49.720;7.296;2022-10-31T10:19:57;98488.22;;;12.70;100.00
4398;BME280;2213;49.720;7.296;2022-10-31T10:22:50;98499.59;;;12.77;100.00
4398;BME280;2213;49.720;7.296;2022-10-31T10:25:23;98496.38;;;12.82;100.00
4398;BME280;2213;49.720;7.296;2022-10-31T10:28:11;98503.47;;;12.88;100.00
4398;BME280;2213;49.720;7.296;2022-10-31T10:30:49;98494.22;;;12.92;100.00
4398;BME280;2213;49.720;7.296;2022-10-31T10:33:24;98494.47;;;12.97;100.00
4398;BME280;2213;49.720;7.296;2022-10-31T10:36:00;98492.09;;;13.02;100.00
4398;BME280;2213;49.720;7.296;2022-10-31T10:38:36;98484.84;;;13.04;100.00
4398;BME280;2213;49.720;7.296;2022-10-31T10:41:14;98489.50;;;13.08;100.00
4398;BME280;2213;49.720;7.296;2022-10-31T10:43:44;98475.66;;;13.15;100.00
4398;BME280;2213;49.720;7.296;2022-10-31T10:46:29;98486.38;;;13.20;100.00
4398;BME280;2213;49.720;7.296;2022-10-31T10:49:29;98476.94;;;13.25;100.00
4398;BME280;2213;49.720;7.296;2022-10-31T10:52:07;98464.00;;;13.30;100.00
4398;BME280;2213;49.720;7.296;2022-10-31T10:55:10;98459.00;;;13.35;100.00
4398;BME280;2213;49.720;7.296;2022-10-31T10:57:55;98458.41;;;13.40;100.00
4398;BME280;2213;49.720;7.296;2022-10-31T11:00:27;98451.56;;;13.45;100.00
4398;BME280;2213;49.720;7.296;2022-10-31T11:02:59;98446.34;;;13.52;100.00
4398;BME280;2213;49.720;7.296;2022-10-31T11:05:36;98431.00;;;13.55;100.00
4398;BME280;2213;49.720;7.296;2022-10-31T11:08:06;98427.97;;;13.58;100.00
4398;BME280;2213;49.720;7.296;2022-10-31T11:10:36;98434.47;;;13.63;100.00
4398;BME280;2213;49.720;7.296;2022-10-31T11:13:21;98444.00;;;13.70;100.00
4398;BME280;2213;49.720;7.296;2022-10-31T11:15:57;98451.28;;;13.75;100.00
4398;BME280;2213;49.720;7.296;2022-10-31T11:18:32;98437.56;;;13.79;100.00
4398;BME280;2213;49.720;7.296;2022-10-31T11:21:03;98425.44;;;13.85;100.00
4398;BME280;2213;49.720;7.296;2022-10-31T11:23:33;98422.03;;;13.91;100.00
4398;BME280;2213;49.720;7.296;2022-10-31T11:26:05;98416.97;;;13.96;100.00
4398;BME280;2213;49.720;7.296;2022-10-31T11:28:34;98425.06;;;14.01;100.00
4398;BME280;2213;49.720;7.296;2022-10-31T11:31:10;98424.28;;;14.07;100.00
4398;BME280;2213;49.720;7.296;2022-10-31T11:33:49;98415.78;;;14.11;100.00
4398;BME280;2213;49.720;7.296;2022-10-31T11:36:25;98410.53;;;14.18;100.00
4398;BME280;2213;49.720;7.296;2022-10-31T11:38:55;98414.38;;;14.22;100.00
4398;BME280;2213;49.720;7.296;2022-10-31T11:41:29;98410.34;;;14.26;100.00
4398;BME280;2213;49.720;7.296;2022-10-31T11:44:03;98406.91;;;14.32;100.00
4398;BME280;2213;49.720;7.296;2022-10-31T11:46:36;98401.88;;;14.37;100.00
4398;BME280;2213;49.720;7.296;2022-10-31T11:49:15;98394.19;;;14.42;100.00
4398;BME280;2213;49.720;7.296;2022-10-31T11:51:50;98386.47;;;14.47;100.00
4398;BME280;2213;49.720;7.296;2022-10-31T11:54:25;98370.91;;;14.52;100.00
4398;BME280;2213;49.720;7.296;2022-10-31T11:56:54;98372.94;;;14.57;100.00
4398;BME280;2213;49.720;7.296;2022-10-31T11:59:28;98373.34;;;14.60;100.00
4398;BME280;2213;49.720;7.296;2022-10-31T12:02:00;98372.50;;;14.67;100.00
4398;BME280;2213;49.720;7.296;2022-10-31T12:04:40;98354.25;;;14.72;100.00
4398;BME280;2213;49.720;7.296;2022-10-31T12:07:11;98353.47;;;14.78;100.00
4398;BME280;2213;49.720;7.296;2022-10-31T12:09:41;98355.44;;;14.82;100.00
4398;BME280;2213;49.720;7.296;2022-10-31T12:15:29;98343.28;;;14.94;100.00
4398;BME280;2213;49.720;7.296;2022-10-31T12:18:29;98338.19;;;14.99;100.00
4398;BME280;2213;49.720;7.296;2022-10-31T12:21:26;98320.75;;;15.05;100.00
4398;BME280;2213;49.720;7.296;2022-10-31T12:24:20;98306.16;;;15.09;100.00
4398;BME280;2213;49.720;7.296;2022-10-31T12:27:05;98301.28;;;15.13;100.00
4398;BME280;2213;49.720;7.296;2022-10-31T12:29:58;98309.56;;;15.16;100.00
4398;BME280;2213;49.720;7.296;2022-10-31T12:32:42;98331.84;;;15.20;100.00
4398;BME280;2213;49.720;7.296;2022-10-31T12:35:40;98332.03;;;15.25;100.00
4398;BME280;2213;49.720;7.296;2022-10-31T12:41:39;98310.09;;;15.31;100.00
4398;BME280;2213;49.720;7.296;2022-10-31T12:44:40;98304.41;;;15.34;100.00
4398;BME280;2213;49.720;7.296;2022-10-31T12:47:39;98296.09;;;15.37;100.00
4398;BME280;2213;49.720;7.296;2022-10-31T12:50:25;98298.50;;;15.39;100.00
4398;BME280;2213;49.720;7.296;2022-10-31T12:53:10;98301.53;;;15.42;100.00
4398;BME280;2213;49.720;7.296;2022-10-31T12:56:02;98308.81;;;15.47;100.00
4398;BME280;2213;49.720;7.296;2022-10-31T12:58:47;98289.97;;;15.50;100.00
4398;BME280;2213;49.720;7.296;2022-10-31T13:01:25;98294.41;;;15.49;100.00
4398;BME280;2213;49.720;7.296;2022-10-31T13:04:01;98289.53;;;15.53;100.00
4398;BME280;2213;49.720;7.296;2022-10-31T13:06:36;98289.91;;;15.56;100.00
4398;BME280;2213;49.720;7.296;2022-10-31T13:09:17;98284.44;;;15.58;100.00
4398;BME280;2213;49.720;7.296;2022-10-31T13:11:53;98277.13;;;15.60;100.00
4398;BME280;2213;49.720;7.296;2022-10-31T13:14:32;98263.50;;;15.63;100.00
4398;BME280;2213;49.720;7.296;2022-10-31T13:17:02;98265.94;;;15.65;100.00
4398;BME280;2213;49.720;7.296;2022-10-31T13:19:38;98266.53;;;15.67;100.00
4398;BME280;2213;49.720;7.296;2022-10-31T13:22:13;98259.22;;;15.69;100.00
4398;BME280;2213;49.720;7.296;2022-10-31T13:24:54;98257.38;;;15.69;100.00
4398;BME280;2213;49.720;7.296;2022-10-31T13:27:30;98244.00;;;15.71;100.00
4398;BME280;2213;49.720;7.296;2022-10-31T13:30:13;98248.81;;;15.74;100.00
4398;BME280;2213;49.720;7.296;2022-10-31T13:32:47;98247.00;;;15.74;100.00
4398;BME280;2213;49.720;7.296;2022-10-31T13:35:26;98243.34;;;15.75;100.00
4398;BME280;2213;49.720;7.296;2022-10-31T13:38:11;98235.44;;;15.75;100.00
4398;BME280;2213;49.720;7.296;2022-10-31T13:40:53;98228.13;;;15.77;100.00
4398;BME280;2213;49.720;7.296;2022-10-31T13:43:32;98215.50;;;15.79;100.00
4398;BME280;2213;49.720;7.296;2022-10-31T13:46:22;98207.41;;;15.81;100.00
4398;BME280;2213;49.720;7.296;2022-10-31T13:48:51;98207.78;;;15.84;100.00
4398;BME280;2213;49.720;7.296;2022-10-31T13:51:26;98206.53;;;15.87;100.00
4398;BME280;2213;49.720;7.296;2022-10-31T13:54:01;98211.34;;;15.90;100.00
4398;BME280;2213;49.720;7.296;2022-10-31T13:56:34;98198.78;;;15.92;100.00
4398;BME280;2213;49.720;7.296;2022-10-31T13:59:19;98204.19;;;15.97;100.00
4398;BME280;2213;49.720;7.296;2022-10-31T14:01:55;98200.91;;;16.01;100.00